sensor_id;sensor_type;location;lat;lon;timestamp;temperature;humidity
20512;DHT22;10414;52.074;5.126;2022-07-05T00:00:27;17.80;99.90
20512;DHT22;10414;52.074;5.126;2022-07-05T00:02:54;17.70;99.90
20512;DHT22;10414;52.074;5.126;2022-07-05T00:05:21;17.70;99.90
20512;DHT22;10414;52.074;5.126;2022-07-05T00:07:48;17.70;99.90
20512;DHT22;10414;52.074;5.126;2022-07-05T00:10:15;17.70;99.90
20512;DHT22;10414;52.074;5.126;2022-07-05T00:12:43;17.80;99.90
20512;DHT22;10414;52.074;5.126;2022-07-05T00:15:10;17.70;99.90
20512;DHT22;10414;52.074;5.126;2022-07-05T00:17:39;17.70;99.90
20512;DHT22;10414;52.074;5.126;2022-07-05T00:20:06;17.70;99.90
20512;DHT22;10414;52.074;5.126;2022-07-05T00:22:34;17.70;99.90
20512;DHT22;10414;52.074;5.126;2022-07-05T00:25:00;17.70;99.90
20512;DHT22;10414;52.074;5.126;2022-07-05T00:27:27;17.70;99.90
20512;DHT22;10414;52.074;5.126;2022-07-05T00:29:55;17.60;99.90
20512;DHT22;10414;52.074;5.126;2022-07-05T00:32:22;17.60;99.90
20512;DHT22;10414;52.074;5.126;2022-07-05T00:34:49;17.60;99.90
20512;DHT22;10414;52.074;5.126;2022-07-05T00:37:17;17.50;99.90
20512;DHT22;10414;52.074;5.126;2022-07-05T00:39:44;17.40;99.90
20512;DHT22;10414;52.074;5.126;2022-07-05T00:42:11;17.40;99.90
20512;DHT22;10414;52.074;5.126;2022-07-05T00:44:39;17.40;99.90
20512;DHT22;10414;52.074;5.126;2022-07-05T00:47:10;17.40;99.90
20512;DHT22;10414;52.074;5.126;2022-07-05T00:49:38;17.40;99.90
20512;DHT22;10414;52.074;5.126;2022-07-05T00:52:06;17.30;99.90
20512;DHT22;10414;52.074;5.126;2022-07-05T00:54:35;17.30;99.90
20512;DHT22;10414;52.074;5.126;2022-07-05T00:57:02;17.10;99.90
20512;DHT22;10414;52.074;5.126;2022-07-05T00:59:30;17.10;99.90
20512;DHT22;10414;52.074;5.126;2022-07-05T01:01:58;17.10;99.90
20512;DHT22;10414;52.074;5.126;2022-07-05T01:04:26;17.20;99.90
20512;DHT22;10414;52.074;5.126;2022-07-05T01:06:54;17.20;99.90
20512;DHT22;10414;52.074;5.126;2022-07-05T01:09:22;17.30;99.90
20512;DHT22;10414;52.074;5.126;2022-07-05T01:11:50;17.40;99.90
20512;DHT22;10414;52.074;5.126;2022-07-05T01:14:18;17.40;99.90
20512;DHT22;10414;52.074;5.126;2022-07-05T01:16:45;17.40;99.90
20512;DHT22;10414;52.074;5.126;2022-07-05T01:19:12;17.10;99.90
20512;DHT22;10414;52.074;5.126;2022-07-05T01:21:42;17.00;99.90
20512;DHT22;10414;52.074;5.126;2022-07-05T01:24:11;16.90;99.90
20512;DHT22;10414;52.074;5.126;2022-07-05T01:26:40;17.00;99.90
20512;DHT22;10414;52.074;5.126;2022-07-05T01:29:08;16.90;99.90
20512;DHT22;10414;52.074;5.126;2022-07-05T01:31:36;16.80;99.90
20512;DHT22;10414;52.074;5.126;2022-07-05T01:34:03;16.80;99.90
20512;DHT22;10414;52.074;5.126;2022-07-05T01:36:30;16.80;99.90
20512;DHT22;10414;52.074;5.126;2022-07-05T01:38:58;16.80;99.90
20512;DHT22;10414;52.074;5.126;2022-07-05T01:41:27;16.90;99.90
20512;DHT22;10414;52.074;5.126;2022-07-05T01:43:54;16.90;99.90
20512;DHT22;10414;52.074;5.126;2022-07-05T01:46:22;16.90;99.90
20512;DHT22;10414;52.074;5.126;2022-07-05T01:48:53;16.90;99.90
20512;DHT22;10414;52.074;5.126;2022-07-05T01:51:24;17.00;99.90
20512;DHT22;10414;52.074;5.126;2022-07-05T01:53:53;17.00;99.90
20512;DHT22;10414;52.074;5.126;2022-07-05T01:56:20;17.10;99.90
20512;DHT22;10414;52.074;5.126;2022-07-05T01:58:48;17.10;99.90
20512;DHT22;10414;52.074;5.126;2022-07-05T02:01:28;16.90;99.90
20512;DHT22;10414;52.074;5.126;2022-07-05T02:03:57;16.90;99.90
20512;DHT22;10414;52.074;5.126;2022-07-05T02:06:25;16.90;99.90
20512;DHT22;10414;52.074;5.126;2022-07-05T02:08:51;17.00;99.90
20512;DHT22;10414;52.074;5.126;2022-07-05T02:11:18;17.10;99.90
20512;DHT22;10414;52.074;5.126;2022-07-05T02:13:45;17.10;99.90
20512;DHT22;10414;52.074;5.126;2022-07-05T02:16:13;17.20;99.90
20512;DHT22;10414;52.074;5.126;2022-07-05T02:18:40;17.10;99.90
20512;DHT22;10414;52.074;5.126;2022-07-05T02:21:07;17.30;99.90
20512;DHT22;10414;52.074;5.126;2022-07-05T02:23:34;17.30;99.90
20512;DHT22;10414;52.074;5.126;2022-07-05T02:26:00;17.30;99.90
20512;DHT22;10414;52.074;5.126;2022-07-05T02:28:27;17.30;99.90
20512;DHT22;10414;52.074;5.126;2022-07-05T02:30:54;17.30;99.90
20512;DHT22;10414;52.074;5.126;2022-07-05T02:33:22;17.30;99.90
20512;DHT22;10414;52.074;5.126;2022-07-05T02:35:49;17.20;99.90
20512;DHT22;10414;52.074;5.126;2022-07-05T02:38:16;17.00;99.90
20512;DHT22;10414;52.074;5.126;2022-07-05T02:40:42;16.80;99.90
20512;DHT22;10414;52.074;5.126;2022-07-05T02:43:09;16.80;99.90
20512;DHT22;10414;52.074;5.126;2022-07-05T02:45:36;16.80;99.90
20512;DHT22;10414;52.074;5.126;2022-07-05T02:48:03;16.90;99.90
20512;DHT22;10414;52.074;5.126;2022-07-05T02:50:32;16.90;99.90
20512;DHT22;10414;52.074;5.126;2022-07-05T02:52:59;16.90;99.90
20512;DHT22;10414;52.074;5.126;2022-07-05T02:55:25;16.90;99.90
20512;DHT22;10414;52.074;5.126;2022-07-05T02:57:52;16.80;99.90
20512;DHT22;10414;52.074;5.126;2022-07-05T03:00:19;16.80;99.90
20512;DHT22;10414;52.074;5.126;2022-07-05T03:02:47;16.70;99.90
20512;DHT22;10414;52.074;5.126;2022-07-05T03:05:13;16.80;99.90
20512;DHT22;10414;52.074;5.126;2022-07-05T03:07:42;16.70;99.90
20512;DHT22;10414;52.074;5.126;2022-07-05T03:10:08;16.70;99.90
20512;DHT22;10414;52.074;5.126;2022-07-05T03:12:36;16.90;99.90
20512;DHT22;10414;52.074;5.126;2022-07-05T03:15:03;17.00;99.90
20512;DHT22;10414;52.074;5.126;2022-07-05T03:17:30;17.00;99.90
20512;DHT22;10414;52.074;5.126;2022-07-05T03:19:56;17.00;99.90
20512;DHT22;10414;52.074;5.126;2022-07-05T03:22:23;17.00;99.90
20512;DHT22;10414;52.074;5.126;2022-07-05T03:24:51;17.10;99.90
20512;DHT22;10414;52.074;5.126;2022-07-05T03:27:18;17.10;99.90
20512;DHT22;10414;52.074;5.126;2022-07-05T03:29:45;17.20;99.90
20512;DHT22;10414;52.074;5.126;2022-07-05T03:32:12;17.20;99.90
20512;DHT22;10414;52.074;5.126;2022-07-05T03:34:39;17.30;99.90
20512;DHT22;10414;52.074;5.126;2022-07-05T03:37:05;17.30;99.90
20512;DHT22;10414;52.074;5.126;2022-07-05T03:39:32;17.30;99.90
20512;DHT22;10414;52.074;5.126;2022-07-05T03:42:00;17.30;99.90
20512;DHT22;10414;52.074;5.126;2022-07-05T03:44:27;17.40;99.90
20512;DHT22;10414;52.074;5.126;2022-07-05T03:46:57;17.50;99.90
20512;DHT22;10414;52.074;5.126;2022-07-05T03:49:24;17.50;99.90
20512;DHT22;10414;52.074;5.126;2022-07-05T03:51:51;17.50;99.90
20512;DHT22;10414;52.074;5.126;2022-07-05T03:54:17;17.40;99.90
20512;DHT22;10414;52.074;5.126;2022-07-05T03:56:45;17.40;99.90
20512;DHT22;10414;52.074;5.126;2022-07-05T03:59:13;17.50;99.90
20512;DHT22;10414;52.074;5.126;2022-07-05T04:01:40;17.50;99.90
20512;DHT22;10414;52.074;5.126;2022-07-05T04:04:06;17.60;99.90
20512;DHT22;10414;52.074;5.126;2022-07-05T04:06:34;17.60;99.90
20512;DHT22;10414;52.074;5.126;2022-07-05T04:09:00;17.70;99.90
20512;DHT22;10414;52.074;5.126;2022-07-05T04:11:27;17.70;99.90
20512;DHT22;10414;52.074;5.126;2022-07-05T04:13:54;17.80;99.90
20512;DHT22;10414;52.074;5.126;2022-07-05T04:16:22;18.00;99.90
20512;DHT22;10414;52.074;5.126;2022-07-05T04:18:49;18.10;99.90
20512;DHT22;10414;52.074;5.126;2022-07-05T04:21:16;18.10;99.90
20512;DHT22;10414;52.074;5.126;2022-07-05T04:23:43;18.10;99.90
20512;DHT22;10414;52.074;5.126;2022-07-05T04:26:10;18.10;99.90
20512;DHT22;10414;52.074;5.126;2022-07-05T04:28:37;18.20;99.90
20512;DHT22;10414;52.074;5.126;2022-07-05T04:31:03;18.40;99.90
20512;DHT22;10414;52.074;5.126;2022-07-05T04:33:31;18.40;99.90
20512;DHT22;10414;52.074;5.126;2022-07-05T04:35:58;18.50;99.90
20512;DHT22;10414;52.074;5.126;2022-07-05T04:38:25;18.60;99.90
20512;DHT22;10414;52.074;5.126;2022-07-05T04:40:52;18.80;99.90
20512;DHT22;10414;52.074;5.126;2022-07-05T04:43:19;19.10;99.90
20512;DHT22;10414;52.074;5.126;2022-07-05T04:45:46;19.10;99.90
20512;DHT22;10414;52.074;5.126;2022-07-05T04:48:13;19.10;99.90
20512;DHT22;10414;52.074;5.126;2022-07-05T04:50:41;19.00;99.90
20512;DHT22;10414;52.074;5.126;2022-07-05T04:53:08;19.30;99.90
20512;DHT22;10414;52.074;5.126;2022-07-05T04:55:35;19.50;99.90
20512;DHT22;10414;52.074;5.126;2022-07-05T04:58:02;19.50;99.90
20512;DHT22;10414;52.074;5.126;2022-07-05T05:00:29;19.70;99.90
20512;DHT22;10414;52.074;5.126;2022-07-05T05:02:56;20.80;99.90
20512;DHT22;10414;52.074;5.126;2022-07-05T05:05:23;23.00;97.40
20512;DHT22;10414;52.074;5.126;2022-07-05T05:07:51;23.50;95.70
20512;DHT22;10414;52.074;5.126;2022-07-05T05:10:19;22.40;96.60
20512;DHT22;10414;52.074;5.126;2022-07-05T05:12:46;22.20;97.00
20512;DHT22;10414;52.074;5.126;2022-07-05T05:15:13;22.00;97.30
20512;DHT22;10414;52.074;5.126;2022-07-05T05:17:40;22.20;97.00
20512;DHT22;10414;52.074;5.126;2022-07-05T05:20:11;23.20;96.10
20512;DHT22;10414;52.074;5.126;2022-07-05T05:22:38;25.40;92.80
20512;DHT22;10414;52.074;5.126;2022-07-05T05:25:09;27.60;89.20
20512;DHT22;10414;52.074;5.126;2022-07-05T05:27:40;29.80;82.60
20512;DHT22;10414;52.074;5.126;2022-07-05T05:30:08;31.60;78.30
20512;DHT22;10414;52.074;5.126;2022-07-05T05:32:35;33.00;74.10
20512;DHT22;10414;52.074;5.126;2022-07-05T05:35:02;33.60;71.70
20512;DHT22;10414;52.074;5.126;2022-07-05T05:37:29;34.30;69.60
20512;DHT22;10414;52.074;5.126;2022-07-05T05:39:56;34.00;67.50
20512;DHT22;10414;52.074;5.126;2022-07-05T05:42:24;33.90;67.20
20512;DHT22;10414;52.074;5.126;2022-07-05T05:44:51;34.30;66.90
20512;DHT22;10414;52.074;5.126;2022-07-05T05:47:18;33.40;67.00
20512;DHT22;10414;52.074;5.126;2022-07-05T05:49:44;32.70;67.20
20512;DHT22;10414;52.074;5.126;2022-07-05T05:52:11;32.40;68.60
20512;DHT22;10414;52.074;5.126;2022-07-05T05:54:38;32.50;68.20
20512;DHT22;10414;52.074;5.126;2022-07-05T05:57:05;32.40;68.70
20512;DHT22;10414;52.074;5.126;2022-07-05T05:59:33;32.60;67.40
20512;DHT22;10414;52.074;5.126;2022-07-05T06:02:00;33.20;66.90
20512;DHT22;10414;52.074;5.126;2022-07-05T06:04:26;33.60;65.90
20512;DHT22;10414;52.074;5.126;2022-07-05T06:06:53;33.60;65.60
20512;DHT22;10414;52.074;5.126;2022-07-05T06:09:20;33.20;66.40
20512;DHT22;10414;52.074;5.126;2022-07-05T06:11:47;34.90;64.30
20512;DHT22;10414;52.074;5.126;2022-07-05T06:14:14;35.60;63.00
20512;DHT22;10414;52.074;5.126;2022-07-05T06:16:42;35.80;62.50
20512;DHT22;10414;52.074;5.126;2022-07-05T06:19:09;37.20;61.50
20512;DHT22;10414;52.074;5.126;2022-07-05T06:21:35;36.50;60.70
20512;DHT22;10414;52.074;5.126;2022-07-05T06:24:02;34.10;63.40
20512;DHT22;10414;52.074;5.126;2022-07-05T06:26:29;32.40;66.00
20512;DHT22;10414;52.074;5.126;2022-07-05T06:28:56;31.00;68.00
20512;DHT22;10414;52.074;5.126;2022-07-05T06:31:23;28.60;72.10
20512;DHT22;10414;52.074;5.126;2022-07-05T06:33:51;28.10;73.60
20512;DHT22;10414;52.074;5.126;2022-07-05T06:36:18;27.50;74.90
20512;DHT22;10414;52.074;5.126;2022-07-05T06:38:44;27.50;75.60
20512;DHT22;10414;52.074;5.126;2022-07-05T06:41:11;26.90;76.40
20512;DHT22;10414;52.074;5.126;2022-07-05T06:43:38;26.80;77.10
20512;DHT22;10414;52.074;5.126;2022-07-05T06:46:05;26.20;78.40
20512;DHT22;10414;52.074;5.126;2022-07-05T06:48:32;25.80;79.30
20512;DHT22;10414;52.074;5.126;2022-07-05T06:51:00;25.00;81.20
20512;DHT22;10414;52.074;5.126;2022-07-05T06:53:26;24.80;81.40
20512;DHT22;10414;52.074;5.126;2022-07-05T06:55:53;24.70;81.10
20512;DHT22;10414;52.074;5.126;2022-07-05T06:58:20;24.60;80.80
20512;DHT22;10414;52.074;5.126;2022-07-05T07:00:47;24.20;81.90
20512;DHT22;10414;52.074;5.126;2022-07-05T07:03:14;24.00;82.90
20512;DHT22;10414;52.074;5.126;2022-07-05T07:05:41;24.10;82.30
20512;DHT22;10414;52.074;5.126;2022-07-05T07:08:09;23.90;82.00
20512;DHT22;10414;52.074;5.126;2022-07-05T07:10:54;23.80;82.40
20512;DHT22;10414;52.074;5.126;2022-07-05T07:13:21;23.60;83.10
20512;DHT22;10414;52.074;5.126;2022-07-05T07:15:48;23.50;83.80
20512;DHT22;10414;52.074;5.126;2022-07-05T07:18:14;23.60;83.50
20512;DHT22;10414;52.074;5.126;2022-07-05T07:20:41;23.90;84.50
20512;DHT22;10414;52.074;5.126;2022-07-05T07:23:09;24.30;83.30
20512;DHT22;10414;52.074;5.126;2022-07-05T07:25:36;24.70;81.70
20512;DHT22;10414;52.074;5.126;2022-07-05T07:28:03;24.90;81.50
20512;DHT22;10414;52.074;5.126;2022-07-05T07:30:32;25.10;81.10
20512;DHT22;10414;52.074;5.126;2022-07-05T07:32:59;26.20;79.30
20512;DHT22;10414;52.074;5.126;2022-07-05T07:35:26;27.10;77.00
20512;DHT22;10414;52.074;5.126;2022-07-05T07:37:53;27.20;76.70
20512;DHT22;10414;52.074;5.126;2022-07-05T07:40:21;27.40;76.80
20512;DHT22;10414;52.074;5.126;2022-07-05T07:42:48;27.00;77.90
20512;DHT22;10414;52.074;5.126;2022-07-05T07:45:15;26.50;78.20
20512;DHT22;10414;52.074;5.126;2022-07-05T07:47:41;26.40;78.90
20512;DHT22;10414;52.074;5.126;2022-07-05T07:50:09;25.80;80.70
20512;DHT22;10414;52.074;5.126;2022-07-05T07:52:35;26.10;80.50
20512;DHT22;10414;52.074;5.126;2022-07-05T07:55:04;25.70;79.70
20512;DHT22;10414;52.074;5.126;2022-07-05T07:57:33;25.60;79.90
20512;DHT22;10414;52.074;5.126;2022-07-05T07:59:59;25.40;78.30
20512;DHT22;10414;52.074;5.126;2022-07-05T08:02:26;25.60;77.10
20512;DHT22;10414;52.074;5.126;2022-07-05T08:04:54;25.90;76.20
20512;DHT22;10414;52.074;5.126;2022-07-05T08:07:23;26.80;73.70
20512;DHT22;10414;52.074;5.126;2022-07-05T08:09:50;27.80;72.20
20512;DHT22;10414;52.074;5.126;2022-07-05T08:12:18;29.30;70.00
20512;DHT22;10414;52.074;5.126;2022-07-05T08:14:46;31.70;65.10
20512;DHT22;10414;52.074;5.126;2022-07-05T08:17:13;32.70;64.10
20512;DHT22;10414;52.074;5.126;2022-07-05T08:19:40;34.90;60.30
20512;DHT22;10414;52.074;5.126;2022-07-05T08:22:25;37.00;58.20
20512;DHT22;10414;52.074;5.126;2022-07-05T08:24:51;39.10;55.30
20512;DHT22;10414;52.074;5.126;2022-07-05T08:27:18;39.50;54.50
20512;DHT22;10414;52.074;5.126;2022-07-05T08:29:46;37.30;53.40
20512;DHT22;10414;52.074;5.126;2022-07-05T08:32:13;36.30;54.30
20512;DHT22;10414;52.074;5.126;2022-07-05T08:34:40;37.20;53.20
20512;DHT22;10414;52.074;5.126;2022-07-05T08:37:07;38.20;53.40
20512;DHT22;10414;52.074;5.126;2022-07-05T08:39:34;37.50;51.90
20512;DHT22;10414;52.074;5.126;2022-07-05T08:42:01;37.50;53.10
20512;DHT22;10414;52.074;5.126;2022-07-05T08:44:32;37.80;52.50
20512;DHT22;10414;52.074;5.126;2022-07-05T08:47:02;36.90;53.50
20512;DHT22;10414;52.074;5.126;2022-07-05T08:49:30;32.20;56.50
20512;DHT22;10414;52.074;5.126;2022-07-05T08:52:01;29.20;61.40
20512;DHT22;10414;52.074;5.126;2022-07-05T08:54:30;27.70;65.00
20512;DHT22;10414;52.074;5.126;2022-07-05T08:56:57;26.80;67.90
20512;DHT22;10414;52.074;5.126;2022-07-05T08:59:24;26.50;68.00
20512;DHT22;10414;52.074;5.126;2022-07-05T09:01:51;27.00;67.80
20512;DHT22;10414;52.074;5.126;2022-07-05T09:04:20;28.70;64.80
20512;DHT22;10414;52.074;5.126;2022-07-05T09:06:48;29.20;64.20
20512;DHT22;10414;52.074;5.126;2022-07-05T09:09:17;27.90;64.80
20512;DHT22;10414;52.074;5.126;2022-07-05T09:11:45;27.40;66.50
20512;DHT22;10414;52.074;5.126;2022-07-05T09:14:20;26.70;66.40
20512;DHT22;10414;52.074;5.126;2022-07-05T09:16:47;27.80;66.60
20512;DHT22;10414;52.074;5.126;2022-07-05T09:19:14;29.80;62.60
20512;DHT22;10414;52.074;5.126;2022-07-05T09:21:43;29.40;62.80
20512;DHT22;10414;52.074;5.126;2022-07-05T09:24:10;28.50;64.50
20512;DHT22;10414;52.074;5.126;2022-07-05T09:26:39;29.60;62.50
20512;DHT22;10414;52.074;5.126;2022-07-05T09:29:07;32.30;60.20
20512;DHT22;10414;52.074;5.126;2022-07-05T09:31:36;33.80;57.80
20512;DHT22;10414;52.074;5.126;2022-07-05T09:34:04;33.20;58.50
20512;DHT22;10414;52.074;5.126;2022-07-05T09:36:49;31.70;60.50
20512;DHT22;10414;52.074;5.126;2022-07-05T09:39:17;29.90;61.40
20512;DHT22;10414;52.074;5.126;2022-07-05T09:41:44;28.30;63.60
20512;DHT22;10414;52.074;5.126;2022-07-05T09:44:10;27.30;65.30
20512;DHT22;10414;52.074;5.126;2022-07-05T09:46:37;26.60;65.90
20512;DHT22;10414;52.074;5.126;2022-07-05T09:49:04;25.60;67.80
20512;DHT22;10414;52.074;5.126;2022-07-05T09:51:46;25.10;69.00
20512;DHT22;10414;52.074;5.126;2022-07-05T09:54:15;25.30;69.50
20512;DHT22;10414;52.074;5.126;2022-07-05T09:56:46;25.40;68.90
20512;DHT22;10414;52.074;5.126;2022-07-05T09:59:15;25.50;68.80
20512;DHT22;10414;52.074;5.126;2022-07-05T10:01:43;26.60;67.30
20512;DHT22;10414;52.074;5.126;2022-07-05T10:04:10;29.80;62.20
20512;DHT22;10414;52.074;5.126;2022-07-05T10:06:37;32.20;58.80
20512;DHT22;10414;52.074;5.126;2022-07-05T10:09:05;32.50;57.90
20512;DHT22;10414;52.074;5.126;2022-07-05T10:11:34;32.00;58.20
20512;DHT22;10414;52.074;5.126;2022-07-05T10:14:10;31.40;59.60
20512;DHT22;10414;52.074;5.126;2022-07-05T10:16:37;29.00;62.50
20512;DHT22;10414;52.074;5.126;2022-07-05T10:19:06;28.10;64.10
20512;DHT22;10414;52.074;5.126;2022-07-05T10:21:35;26.60;65.80
20512;DHT22;10414;52.074;5.126;2022-07-05T10:24:02;24.90;69.30
20512;DHT22;10414;52.074;5.126;2022-07-05T10:26:29;25.40;69.00
20512;DHT22;10414;52.074;5.126;2022-07-05T10:29:00;27.10;65.60
20512;DHT22;10414;52.074;5.126;2022-07-05T10:31:28;28.10;63.10
20512;DHT22;10414;52.074;5.126;2022-07-05T10:33:56;26.90;66.10
20512;DHT22;10414;52.074;5.126;2022-07-05T10:36:23;26.60;67.10
20512;DHT22;10414;52.074;5.126;2022-07-05T10:38:50;26.90;67.10
20512;DHT22;10414;52.074;5.126;2022-07-05T10:41:19;27.10;67.80
20512;DHT22;10414;52.074;5.126;2022-07-05T10:43:53;27.00;67.50
20512;DHT22;10414;52.074;5.126;2022-07-05T10:46:33;28.30;64.40
20512;DHT22;10414;52.074;5.126;2022-07-05T10:49:09;28.40;65.00
20512;DHT22;10414;52.074;5.126;2022-07-05T10:51:36;29.90;62.20
20512;DHT22;10414;52.074;5.126;2022-07-05T10:54:03;28.30;63.90
20512;DHT22;10414;52.074;5.126;2022-07-05T10:56:30;26.90;66.90
20512;DHT22;10414;52.074;5.126;2022-07-05T10:59:07;27.00;67.60
20512;DHT22;10414;52.074;5.126;2022-07-05T11:01:37;28.90;64.30
20512;DHT22;10414;52.074;5.126;2022-07-05T11:04:24;28.40;63.70
20512;DHT22;10414;52.074;5.126;2022-07-05T11:06:52;27.40;65.70
20512;DHT22;10414;52.074;5.126;2022-07-05T11:09:20;28.30;63.70
20512;DHT22;10414;52.074;5.126;2022-07-05T11:14:46;28.90;64.60
20512;DHT22;10414;52.074;5.126;2022-07-05T11:17:17;28.10;64.90
20512;DHT22;10414;52.074;5.126;2022-07-05T11:20:15;26.80;67.00
20512;DHT22;10414;52.074;5.126;2022-07-05T11:23:01;26.50;66.80
20512;DHT22;10414;52.074;5.126;2022-07-05T11:25:29;26.60;66.20
20512;DHT22;10414;52.074;5.126;2022-07-05T11:28:05;26.90;65.70
20512;DHT22;10414;52.074;5.126;2022-07-05T11:30:48;27.40;65.40
20512;DHT22;10414;52.074;5.126;2022-07-05T11:33:36;26.00;67.00
20512;DHT22;10414;52.074;5.126;2022-07-05T11:36:05;25.30;68.70
20512;DHT22;10414;52.074;5.126;2022-07-05T11:38:33;26.00;67.50
20512;DHT22;10414;52.074;5.126;2022-07-05T11:41:13;26.70;66.50
20512;DHT22;10414;52.074;5.126;2022-07-05T11:43:40;27.10;65.70
20512;DHT22;10414;52.074;5.126;2022-07-05T11:46:08;27.00;65.50
20512;DHT22;10414;52.074;5.126;2022-07-05T11:48:37;27.70;65.10
20512;DHT22;10414;52.074;5.126;2022-07-05T11:51:12;27.30;64.10
20512;DHT22;10414;52.074;5.126;2022-07-05T11:53:40;27.90;64.00
20512;DHT22;10414;52.074;5.126;2022-07-05T11:56:09;27.60;63.80
20512;DHT22;10414;52.074;5.126;2022-07-05T11:58:36;27.10;64.60
20512;DHT22;10414;52.074;5.126;2022-07-05T12:01:03;26.30;65.60
20512;DHT22;10414;52.074;5.126;2022-07-05T12:03:31;25.90;66.50
20512;DHT22;10414;52.074;5.126;2022-07-05T12:06:10;26.30;65.30
20512;DHT22;10414;52.074;5.126;2022-07-05T12:08:37;25.60;66.80
20512;DHT22;10414;52.074;5.126;2022-07-05T12:11:04;25.10;66.60
20512;DHT22;10414;52.074;5.126;2022-07-05T12:13:50;24.90;67.50
20512;DHT22;10414;52.074;5.126;2022-07-05T12:16:17;24.80;66.90
20512;DHT22;10414;52.074;5.126;2022-07-05T12:18:49;24.70;67.10
20512;DHT22;10414;52.074;5.126;2022-07-05T12:21:18;24.80;67.60
20512;DHT22;10414;52.074;5.126;2022-07-05T12:23:47;24.70;67.20
20512;DHT22;10414;52.074;5.126;2022-07-05T12:26:14;24.40;67.40
20512;DHT22;10414;52.074;5.126;2022-07-05T12:28:42;24.20;67.00
20512;DHT22;10414;52.074;5.126;2022-07-05T12:31:20;23.90;68.20
20512;DHT22;10414;52.074;5.126;2022-07-05T12:33:48;23.80;69.10
20512;DHT22;10414;52.074;5.126;2022-07-05T12:36:16;24.00;68.50
20512;DHT22;10414;52.074;5.126;2022-07-05T12:38:45;23.90;67.00
20512;DHT22;10414;52.074;5.126;2022-07-05T12:41:20;23.50;67.80
20512;DHT22;10414;52.074;5.126;2022-07-05T12:43:52;23.80;67.70
20512;DHT22;10414;52.074;5.126;2022-07-05T12:46:20;23.50;67.50
20512;DHT22;10414;52.074;5.126;2022-07-05T12:48:51;23.40;67.70
20512;DHT22;10414;52.074;5.126;2022-07-05T12:51:32;23.50;67.50
20512;DHT22;10414;52.074;5.126;2022-07-05T12:54:02;24.00;67.50
20512;DHT22;10414;52.074;5.126;2022-07-05T12:56:47;23.80;66.80
20512;DHT22;10414;52.074;5.126;2022-07-05T12:59:32;23.60;66.70
20512;DHT22;10414;52.074;5.126;2022-07-05T13:01:59;23.30;68.50
20512;DHT22;10414;52.074;5.126;2022-07-05T13:04:27;23.40;68.20
20512;DHT22;10414;52.074;5.126;2022-07-05T13:06:55;23.30;69.00
20512;DHT22;10414;52.074;5.126;2022-07-05T13:09:33;23.50;66.90
20512;DHT22;10414;52.074;5.126;2022-07-05T13:12:09;23.50;66.60
20512;DHT22;10414;52.074;5.126;2022-07-05T13:14:37;23.30;67.10
20512;DHT22;10414;52.074;5.126;2022-07-05T13:17:05;23.20;67.60
20512;DHT22;10414;52.074;5.126;2022-07-05T13:19:31;23.60;67.10
20512;DHT22;10414;52.074;5.126;2022-07-05T13:21:59;24.10;67.30
20512;DHT22;10414;52.074;5.126;2022-07-05T13:24:26;24.20;66.30
20512;DHT22;10414;52.074;5.126;2022-07-05T13:26:55;23.70;66.50
20512;DHT22;10414;52.074;5.126;2022-07-05T13:29:22;23.80;66.50
20512;DHT22;10414;52.074;5.126;2022-07-05T13:31:49;23.80;65.60
20512;DHT22;10414;52.074;5.126;2022-07-05T13:34:16;23.70;66.10
20512;DHT22;10414;52.074;5.126;2022-07-05T13:36:43;23.70;67.00
20512;DHT22;10414;52.074;5.126;2022-07-05T13:39:10;24.00;68.00
20512;DHT22;10414;52.074;5.126;2022-07-05T13:41:37;23.60;66.60
20512;DHT22;10414;52.074;5.126;2022-07-05T13:44:06;23.80;65.80
20512;DHT22;10414;52.074;5.126;2022-07-05T13:46:32;24.00;67.00
20512;DHT22;10414;52.074;5.126;2022-07-05T13:48:59;24.20;68.00
20512;DHT22;10414;52.074;5.126;2022-07-05T13:51:26;24.00;66.40
20512;DHT22;10414;52.074;5.126;2022-07-05T13:53:53;23.80;67.00
20512;DHT22;10414;52.074;5.126;2022-07-05T13:56:20;23.80;68.00
20512;DHT22;10414;52.074;5.126;2022-07-05T13:58:47;24.10;68.40
20512;DHT22;10414;52.074;5.126;2022-07-05T14:01:15;24.20;65.90
20512;DHT22;10414;52.074;5.126;2022-07-05T14:03:42;24.30;66.00
20512;DHT22;10414;52.074;5.126;2022-07-05T14:06:09;24.10;66.10
20512;DHT22;10414;52.074;5.126;2022-07-05T14:08:36;23.90;66.80
20512;DHT22;10414;52.074;5.126;2022-07-05T14:11:03;23.60;67.30
20512;DHT22;10414;52.074;5.126;2022-07-05T14:13:30;23.40;68.40
20512;DHT22;10414;52.074;5.126;2022-07-05T14:15:56;23.00;69.20
20512;DHT22;10414;52.074;5.126;2022-07-05T14:18:25;23.40;69.20
20512;DHT22;10414;52.074;5.126;2022-07-05T14:20:51;23.70;69.30
20512;DHT22;10414;52.074;5.126;2022-07-05T14:23:20;23.90;68.70
20512;DHT22;10414;52.074;5.126;2022-07-05T14:25:47;23.40;69.50
20512;DHT22;10414;52.074;5.126;2022-07-05T14:28:14;23.10;69.50
20512;DHT22;10414;52.074;5.126;2022-07-05T14:30:43;23.40;69.80
20512;DHT22;10414;52.074;5.126;2022-07-05T14:33:11;23.40;69.80
20512;DHT22;10414;52.074;5.126;2022-07-05T14:35:40;23.50;70.20
20512;DHT22;10414;52.074;5.126;2022-07-05T14:38:07;23.20;70.60
20512;DHT22;10414;52.074;5.126;2022-07-05T14:40:35;23.20;70.80
20512;DHT22;10414;52.074;5.126;2022-07-05T14:43:03;23.50;70.90
20512;DHT22;10414;52.074;5.126;2022-07-05T14:45:30;23.20;71.70
20512;DHT22;10414;52.074;5.126;2022-07-05T14:47:57;23.20;72.10
20512;DHT22;10414;52.074;5.126;2022-07-05T14:50:24;23.10;71.40
20512;DHT22;10414;52.074;5.126;2022-07-05T14:52:52;23.10;73.80
20512;DHT22;10414;52.074;5.126;2022-07-05T14:55:20;23.00;72.40
20512;DHT22;10414;52.074;5.126;2022-07-05T14:57:46;23.40;73.20
20512;DHT22;10414;52.074;5.126;2022-07-05T15:00:14;23.30;71.00
20512;DHT22;10414;52.074;5.126;2022-07-05T15:02:42;23.20;71.50
20512;DHT22;10414;52.074;5.126;2022-07-05T15:05:10;23.50;70.20
20512;DHT22;10414;52.074;5.126;2022-07-05T15:07:38;23.20;70.00
20512;DHT22;10414;52.074;5.126;2022-07-05T15:10:08;22.90;70.70
20512;DHT22;10414;52.074;5.126;2022-07-05T15:12:35;22.90;71.60
20512;DHT22;10414;52.074;5.126;2022-07-05T15:15:02;22.90;71.70
20512;DHT22;10414;52.074;5.126;2022-07-05T15:17:29;22.80;71.90
20512;DHT22;10414;52.074;5.126;2022-07-05T15:19:57;22.70;72.40
20512;DHT22;10414;52.074;5.126;2022-07-05T15:22:24;22.60;73.20
20512;DHT22;10414;52.074;5.126;2022-07-05T15:24:52;22.70;73.70
20512;DHT22;10414;52.074;5.126;2022-07-05T15:27:21;22.90;73.20
20512;DHT22;10414;52.074;5.126;2022-07-05T15:29:47;22.60;71.80
20512;DHT22;10414;52.074;5.126;2022-07-05T15:32:15;22.50;73.40
20512;DHT22;10414;52.074;5.126;2022-07-05T15:34:42;22.60;74.30
20512;DHT22;10414;52.074;5.126;2022-07-05T15:37:08;22.80;73.60
20512;DHT22;10414;52.074;5.126;2022-07-05T15:39:36;22.70;73.20